createdAt,value
2018-07-21T00:00:19.157Z,70.09
2018-07-21T00:01:19.117Z,70.19
2018-07-21T00:02:19.121Z,70.57
2018-07-21T00:03:19.038Z,71.34
2018-07-21T00:04:19.000Z,71.38
2018-07-21T00:05:18.959Z,70.38
2018-07-21T00:06:18.920Z,70.09
2018-07-21T00:07:18.881Z,70.09
2018-07-21T00:08:18.843Z,69.32
2018-07-21T00:09:18.802Z,69.51
2018-07-21T00:10:18.761Z,69.51
2018-07-21T00:11:18.720Z,70.76
2018-07-21T00:12:18.679Z,70.19
2018-07-21T00:13:18.641Z,69.90
2018-07-21T00:14:18.607Z,69.32
2018-07-21T00:15:18.561Z,69.13
2018-07-21T00:16:18.528Z,70.48
2018-07-21T00:17:18.481Z,70.38
2018-07-21T00:18:18.443Z,70.57
2018-07-21T00:19:18.401Z,71.25
2018-07-21T00:20:18.362Z,71.54
2018-07-21T00:21:18.333Z,71.73
2018-07-21T00:22:18.284Z,71.34
2018-07-21T00:23:18.251Z,71.25
2018-07-21T00:24:18.203Z,71.73
2018-07-21T00:25:18.163Z,72.02
2018-07-21T00:26:18.133Z,71.73
2018-07-21T00:27:18.084Z,71.92
2018-07-21T00:28:18.045Z,71.92
2018-07-21T00:29:18.004Z,72.21
2018-07-21T00:30:17.966Z,71.44
2018-07-21T00:31:17.927Z,70.38
2018-07-21T00:32:17.886Z,70.48
2018-07-21T00:33:17.846Z,70.67
2018-07-21T00:34:17.805Z,71.83
2018-07-21T00:35:17.763Z,71.64
2018-07-21T00:36:17.726Z,71.06
2018-07-21T00:37:17.688Z,70.96
2018-07-21T00:38:17.648Z,70.86
2018-07-21T00:39:17.606Z,71.83
2018-07-21T00:40:17.566Z,71.54
2018-07-21T00:41:17.527Z,71.83
2018-07-21T00:42:17.487Z,72.21
2018-07-21T00:43:17.447Z,71.64
2018-07-21T00:44:17.408Z,70.57
2018-07-21T00:45:17.368Z,70.86
2018-07-21T00:46:17.334Z,71.41
2018-07-21T00:47:17.289Z,71.73
2018-07-21T00:48:17.249Z,71.06
2018-07-21T00:49:17.213Z,71.34
2018-07-21T00:50:17.169Z,71.25
2018-07-21T00:51:17.128Z,71.73
2018-07-21T00:52:17.088Z,71.25
2018-07-21T00:53:17.054Z,71.44
2018-07-21T00:54:17.009Z,71.31
2018-07-21T00:55:16.969Z,71.54
2018-07-21T00:56:16.931Z,72.41
2018-07-21T00:57:16.894Z,72.56
2018-07-21T00:58:16.851Z,72.85
2018-07-21T00:59:16.809Z,72.89
2018-07-21T01:00:16.775Z,73.57
2018-07-21T01:01:16.729Z,73.66
2018-07-21T01:02:16.689Z,73.53
2018-07-21T01:03:16.650Z,73.33
2018-07-21T01:04:16.615Z,73.33
2018-07-21T01:05:16.569Z,72.37
2018-07-21T01:06:16.531Z,73.43
2018-07-21T01:07:16.489Z,73.62
2018-07-21T01:08:16.451Z,73.62
2018-07-21T01:09:16.414Z,74.30
2018-07-21T01:10:16.372Z,73.53
2018-07-21T01:11:16.334Z,73.33
2018-07-21T01:12:16.290Z,73.14
2018-07-21T01:13:16.250Z,72.85
2018-07-21T01:14:16.212Z,73.24
2018-07-21T01:15:16.169Z,73.72
2018-07-21T01:16:16.130Z,73.72
2018-07-21T01:17:16.091Z,74.49
2018-07-21T01:18:16.051Z,74.30
2018-07-21T01:19:16.012Z,74.26
2018-07-21T01:20:15.972Z,74.74
2018-07-21T01:21:15.930Z,75.23
2018-07-21T01:22:15.891Z,75.51
2018-07-21T01:23:15.851Z,74.84
2018-07-21T01:24:15.810Z,75.13
2018-07-21T01:25:15.770Z,75.32
2018-07-21T01:26:15.731Z,75.71
2018-07-21T01:27:15.689Z,75.32
2018-07-21T01:28:15.652Z,75.13
2018-07-21T01:29:15.612Z,75.61
2018-07-21T01:30:15.570Z,75.42
2018-07-21T01:31:15.529Z,76.18
2018-07-21T01:32:15.489Z,75.99
2018-07-21T01:33:15.449Z,75.61
2018-07-21T01:34:15.409Z,76.09
2018-07-21T01:35:15.369Z,75.71
2018-07-21T01:36:15.327Z,75.23
2018-07-21T01:37:15.288Z,75.13
2018-07-21T01:38:15.248Z,75.32
2018-07-21T01:39:15.209Z,75.42
2018-07-21T01:40:15.326Z,75.80
2018-07-21T01:41:15.749Z,76.38
2018-07-21T01:42:15.665Z,77.44
2018-07-21T01:43:15.048Z,77.15
2018-07-21T01:44:15.008Z,77.15
2018-07-21T01:45:14.969Z,76.18
2018-07-21T01:46:14.929Z,76.38
2018-07-21T01:47:14.885Z,76.34
2018-07-21T01:48:14.848Z,77.44
2018-07-21T01:49:14.807Z,76.63
2018-07-21T01:50:14.766Z,77.34
2018-07-21T01:51:14.725Z,77.69
2018-07-21T01:52:14.684Z,77.98
2018-07-21T01:53:14.644Z,78.46
2018-07-21T01:54:14.607Z,78.36
2018-07-21T01:55:14.565Z,77.69
2018-07-21T01:56:14.523Z,77.59
2018-07-21T01:57:14.486Z,77.69
2018-07-21T01:58:14.445Z,78.08
2018-07-21T01:59:14.405Z,77.59
2018-07-21T02:00:14.361Z,77.78
2018-07-21T02:01:14.324Z,78.08
2018-07-21T02:02:14.280Z,78.46
2018-07-21T02:03:14.241Z,79.23
2018-07-21T02:04:14.200Z,78.56
2018-07-21T02:05:14.160Z,78.08
2018-07-21T02:06:14.120Z,77.69
2018-07-21T02:07:14.082Z,77.40
2018-07-21T02:08:14.043Z,77.31
2018-07-21T02:09:14.000Z,77.31
2018-07-21T02:10:13.963Z,77.11
2018-07-21T02:11:13.920Z,77.78
2018-07-21T02:12:13.879Z,78.08
2018-07-21T02:13:13.840Z,78.17
2018-07-21T02:14:13.797Z,78.65
2018-07-21T02:15:13.756Z,79.43
2018-07-21T02:16:13.717Z,79.23
2018-07-21T02:17:13.677Z,78.85
2018-07-21T02:18:13.638Z,78.65
2018-07-21T02:19:13.641Z,78.17
2018-07-21T02:20:13.554Z,79.03
2018-07-21T02:21:13.547Z,78.75
2018-07-21T02:22:13.479Z,79.03
2018-07-21T02:23:13.504Z,79.03
2018-07-21T02:24:13.416Z,78.75
2018-07-21T02:25:13.354Z,78.94
2018-07-21T02:26:13.314Z,79.23
2018-07-21T02:27:13.273Z,79.13
2018-07-21T02:28:13.234Z,78.85
2018-07-21T02:29:13.191Z,78.94
2018-07-21T02:30:13.155Z,79.23
2018-07-21T02:31:13.109Z,79.43
2018-07-21T02:32:13.077Z,79.81
2018-07-21T02:33:13.034Z,79.52
2018-07-21T02:34:12.995Z,79.13
2018-07-21T02:35:12.949Z,79.23
2018-07-21T02:36:12.911Z,78.46
2018-07-21T02:37:12.870Z,78.56
2018-07-21T02:38:12.838Z,78.75
2018-07-21T02:39:12.788Z,78.85
2018-07-21T02:40:12.747Z,78.85
2018-07-21T02:41:12.707Z,79.03
2018-07-21T02:42:12.670Z,79.43
2018-07-21T02:43:12.631Z,79.33
2018-07-21T02:44:12.588Z,79.23
2018-07-21T02:45:12.547Z,79.13
2018-07-21T02:46:12.511Z,78.56
2018-07-21T02:47:12.464Z,78.36
2018-07-21T02:48:12.426Z,79.13
2018-07-21T02:49:12.386Z,78.75
2018-07-21T02:50:12.346Z,78.75
2018-07-21T02:51:12.303Z,79.43
2018-07-21T02:52:12.266Z,79.23
2018-07-21T02:53:12.223Z,79.13
2018-07-21T02:54:12.183Z,79.23
2018-07-21T02:55:12.142Z,79.23
2018-07-21T02:56:12.104Z,79.90
2018-07-21T02:57:12.061Z,79.71
2018-07-21T02:58:12.024Z,79.52
2018-07-21T02:59:11.979Z,79.33
2018-07-21T03:00:11.942Z,79.52
2018-07-21T03:01:11.899Z,79.90
2018-07-21T03:02:11.859Z,79.23
2018-07-21T03:03:11.821Z,78.75
2018-07-21T03:04:11.786Z,78.75
2018-07-21T03:05:11.744Z,78.65
2018-07-21T03:06:11.699Z,78.94
2018-07-21T03:07:11.656Z,79.13
2018-07-21T03:08:11.624Z,79.43
2018-07-21T03:09:11.578Z,79.23
2018-07-21T03:10:11.538Z,78.85
2018-07-21T03:11:11.503Z,79.13
2018-07-21T03:12:11.460Z,79.90
2018-07-21T03:13:11.415Z,79.90
2018-07-21T03:14:11.375Z,80.00
2018-07-21T03:15:11.334Z,79.33
2018-07-21T03:16:11.295Z,79.23
2018-07-21T03:17:11.253Z,79.03
2018-07-21T03:18:11.214Z,79.52
2018-07-21T03:19:11.173Z,80.10
2018-07-21T03:20:11.135Z,80.00
2018-07-21T03:21:11.095Z,80.68
2018-07-21T03:22:11.051Z,80.87
2018-07-21T03:23:11.072Z,81.06
2018-07-21T03:24:10.972Z,80.96
2018-07-21T03:25:10.930Z,80.19
2018-07-21T03:26:10.890Z,79.90
2018-07-21T03:27:10.853Z,80.38
2018-07-21T03:28:10.815Z,80.19
2018-07-21T03:29:10.768Z,80.29
2018-07-21T03:30:10.730Z,80.10
2018-07-21T03:31:10.687Z,80.77
2018-07-21T03:32:10.649Z,80.92
2018-07-21T03:33:10.606Z,80.73
2018-07-21T03:34:10.567Z,80.54
2018-07-21T03:35:10.531Z,81.30
2018-07-21T03:36:10.490Z,81.40
2018-07-21T03:37:10.443Z,81.21
2018-07-21T03:38:10.406Z,80.83
2018-07-21T03:39:10.366Z,80.73
2018-07-21T03:40:10.326Z,81.30
2018-07-21T03:41:10.285Z,81.40
2018-07-21T03:42:10.241Z,81.30
2018-07-21T03:43:10.202Z,81.30
2018-07-21T03:44:10.161Z,81.21
2018-07-21T03:45:10.126Z,81.40
2018-07-21T03:46:10.082Z,81.70
2018-07-21T03:47:10.057Z,81.60
2018-07-21T03:48:10.010Z,81.94
2018-07-21T03:49:09.971Z,82.14
2018-07-21T03:50:09.934Z,82.27
2018-07-21T03:51:09.875Z,82.08
2018-07-21T03:52:09.838Z,82.71
2018-07-21T03:53:09.800Z,83.29
2018-07-21T03:54:09.754Z,83.81
2018-07-21T03:55:09.729Z,83.19
2018-07-21T03:56:09.672Z,83.29
2018-07-21T03:57:09.631Z,83.58
2018-07-21T03:58:09.591Z,83.67
2018-07-21T03:59:09.550Z,83.58
2018-07-21T04:00:09.512Z,83.77
2018-07-21T04:01:09.472Z,84.06
2018-07-21T04:02:09.429Z,84.34
2018-07-21T04:03:09.394Z,84.25
2018-07-21T04:04:09.346Z,84.92
2018-07-21T04:05:09.306Z,85.21
2018-07-21T04:06:09.265Z,85.21
2018-07-21T04:07:09.232Z,84.92
2018-07-21T04:08:09.183Z,85.21
2018-07-21T04:09:09.147Z,85.60
2018-07-21T04:10:09.103Z,85.65
2018-07-21T04:11:09.061Z,85.75
2018-07-21T04:12:09.022Z,85.55
2018-07-21T04:13:08.979Z,86.04
2018-07-21T04:14:08.938Z,85.65
2018-07-21T04:15:08.899Z,85.75
2018-07-21T04:16:08.856Z,86.04
2018-07-21T04:17:08.816Z,86.61
2018-07-21T04:18:08.776Z,86.32
2018-07-21T04:19:08.733Z,85.84
2018-07-21T04:20:08.694Z,86.04
2018-07-21T04:21:08.651Z,86.13
2018-07-21T04:22:08.614Z,86.61
2018-07-21T04:23:08.570Z,86.80
2018-07-21T04:24:08.547Z,87.57
2018-07-21T04:25:08.487Z,87.38
2018-07-21T04:26:08.449Z,87.19
2018-07-21T04:27:08.406Z,87.86
2018-07-21T04:28:08.364Z,87.76
2018-07-21T04:29:08.326Z,87.19
2018-07-21T04:30:08.284Z,87.34
2018-07-21T04:31:08.243Z,87.48
2018-07-21T04:32:08.201Z,87.48
2018-07-21T04:33:08.160Z,88.20
2018-07-21T04:34:08.124Z,87.92
2018-07-21T04:35:08.085Z,88.30
2018-07-21T04:36:08.038Z,87.48
2018-07-21T04:37:07.997Z,87.43
2018-07-21T04:38:07.955Z,87.48
2018-07-21T04:39:07.912Z,87.62
2018-07-21T04:40:07.875Z,87.76
2018-07-21T04:41:07.833Z,87.96
2018-07-21T04:42:07.790Z,87.72
2018-07-21T04:43:07.750Z,87.62
2018-07-21T04:44:07.708Z,88.30
2018-07-21T04:45:07.668Z,88.44
2018-07-21T04:46:07.628Z,88.92
2018-07-21T04:47:07.585Z,89.16
2018-07-21T04:48:07.546Z,88.97
2018-07-21T04:49:07.507Z,89.21
2018-07-21T04:50:07.465Z,88.82
2018-07-21T04:51:07.423Z,89.21
2018-07-21T04:52:07.380Z,89.01
2018-07-21T04:53:07.342Z,89.16
2018-07-21T04:54:07.303Z,88.78
2018-07-21T04:55:07.254Z,89.01
2018-07-21T04:56:07.214Z,89.21
2018-07-21T04:57:07.173Z,89.30
2018-07-21T04:58:07.134Z,89.78
2018-07-21T04:59:07.093Z,90.26
2018-07-21T05:00:07.051Z,89.98
2018-07-21T05:01:07.033Z,89.98
2018-07-21T05:02:06.968Z,89.69
2018-07-21T05:03:06.929Z,90.07
2018-07-21T05:04:06.888Z,89.59
2018-07-21T05:05:06.848Z,89.69
2018-07-21T05:06:06.809Z,89.88
2018-07-21T05:07:06.766Z,90.45
2018-07-21T05:08:06.723Z,90.26
2018-07-21T05:09:06.685Z,90.69
2018-07-21T05:10:06.641Z,90.31
2018-07-21T05:11:06.599Z,89.73
2018-07-21T05:12:06.558Z,89.35
2018-07-21T05:13:06.517Z,89.54
2018-07-21T05:14:06.477Z,89.44
2018-07-21T05:15:06.437Z,89.15
2018-07-21T05:16:06.404Z,88.96
2018-07-21T05:17:06.355Z,89.49
2018-07-21T05:18:06.321Z,89.58
2018-07-21T05:19:06.292Z,88.62
2018-07-21T05:20:06.268Z,89.01
2018-07-21T05:21:06.196Z,88.71
2018-07-21T05:22:06.157Z,88.14
2018-07-21T05:23:06.111Z,88.53
2018-07-21T05:24:06.078Z,87.56
2018-07-21T05:25:06.027Z,87.76
2018-07-21T05:26:05.989Z,85.68
2018-07-21T05:27:05.946Z,84.91
2018-07-21T05:28:05.906Z,83.66
2018-07-21T05:29:05.869Z,83.08
2018-07-21T05:30:05.831Z,82.31
2018-07-21T05:31:05.786Z,81.93
2018-07-21T05:32:05.744Z,81.73
2018-07-21T05:33:05.703Z,81.63
2018-07-21T05:34:05.709Z,81.45
2018-07-21T05:35:05.621Z,81.77
2018-07-21T05:36:05.581Z,81.29
2018-07-21T05:37:05.543Z,81.20
2018-07-21T05:38:05.503Z,80.91
2018-07-21T05:39:05.476Z,80.71
2018-07-21T05:40:05.425Z,80.43
2018-07-21T05:41:05.381Z,79.94
2018-07-21T05:42:05.341Z,80.43
2018-07-21T05:43:05.301Z,80.14
2018-07-21T05:44:05.261Z,79.75
2018-07-21T05:45:05.232Z,79.21
2018-07-21T05:46:05.179Z,78.11
2018-07-21T05:47:05.141Z,78.15
2018-07-21T05:48:05.103Z,78.44
2018-07-21T05:49:05.060Z,78.25
2018-07-21T05:50:05.020Z,78.44
2018-07-21T05:51:04.978Z,78.54
2018-07-21T05:52:04.940Z,78.54
2018-07-21T05:53:04.923Z,78.44
2018-07-21T05:54:04.863Z,78.63
2018-07-21T05:55:04.832Z,77.96
2018-07-21T05:56:04.778Z,78.06
2018-07-21T05:57:04.741Z,78.34
2018-07-21T05:58:04.700Z,77.71
2018-07-21T05:59:04.657Z,77.51
2018-07-21T06:00:04.621Z,77.90
2018-07-21T06:01:04.580Z,77.71
2018-07-21T06:02:04.541Z,78.38
2018-07-21T06:03:04.564Z,78.48
2018-07-21T06:04:04.459Z,77.81
2018-07-21T06:05:04.423Z,77.42
2018-07-21T06:06:04.385Z,77.03
2018-07-21T06:07:04.340Z,76.36
2018-07-21T06:08:04.299Z,77.03
2018-07-21T06:09:04.259Z,76.50
2018-07-21T06:10:04.219Z,76.17
2018-07-21T06:11:04.189Z,76.10
2018-07-21T06:12:04.141Z,76.40
2018-07-21T06:13:04.100Z,76.88
2018-07-21T06:14:04.061Z,76.68
2018-07-21T06:15:04.026Z,76.01
2018-07-21T06:16:03.983Z,76.10
2018-07-21T06:17:03.966Z,76.50
2018-07-21T06:18:03.906Z,76.10
2018-07-21T06:19:03.861Z,75.24
2018-07-21T06:20:03.822Z,75.43
2018-07-21T06:21:03.784Z,75.43
2018-07-21T06:22:03.742Z,75.76
2018-07-21T06:23:03.703Z,75.85
2018-07-21T06:24:03.664Z,75.92
2018-07-21T06:25:03.653Z,76.34
2018-07-21T06:26:03.585Z,76.15
2018-07-21T06:27:03.550Z,76.34
2018-07-21T06:28:03.523Z,76.15
2018-07-21T06:29:03.468Z,75.76
2018-07-21T06:30:03.429Z,76.05
2018-07-21T06:31:03.388Z,75.85
2018-07-21T06:32:03.349Z,75.99
2018-07-21T06:33:03.313Z,75.12
2018-07-21T06:34:03.271Z,75.22
2018-07-21T06:35:03.230Z,74.41
2018-07-21T06:36:03.191Z,74.35
2018-07-21T06:37:03.151Z,74.44
2018-07-21T06:38:03.114Z,73.96
2018-07-21T06:39:03.071Z,74.06
2018-07-21T06:40:03.039Z,73.48
2018-07-21T06:41:02.995Z,73.77
2018-07-21T06:42:02.955Z,74.35
2018-07-21T06:43:02.927Z,73.67
2018-07-21T06:44:02.876Z,73.48
2018-07-21T06:45:02.837Z,72.71
2018-07-21T06:46:02.799Z,72.61
2018-07-21T06:47:02.757Z,71.64
2018-07-21T06:48:02.719Z,72.71
2018-07-21T06:49:02.679Z,71.74
2018-07-21T06:50:02.643Z,71.48
2018-07-21T06:51:02.601Z,71.10
2018-07-21T06:52:02.562Z,71.48
2018-07-21T06:53:02.526Z,70.81
2018-07-21T06:54:02.487Z,70.81
2018-07-21T06:55:02.444Z,70.90
2018-07-21T06:56:02.407Z,70.42
2018-07-21T06:57:02.373Z,70.81
2018-07-21T06:58:02.327Z,70.81
2018-07-21T06:59:02.339Z,69.74
2018-07-21T07:00:02.248Z,69.30
2018-07-21T07:01:02.256Z,69.01
2018-07-21T07:02:02.173Z,69.59
2018-07-21T07:03:02.132Z,69.01
2018-07-21T07:04:02.093Z,69.59
2018-07-21T07:05:02.054Z,69.30
2018-07-21T07:06:02.017Z,70.26
2018-07-21T07:07:01.978Z,69.30
2018-07-21T07:08:01.938Z,69.01
2018-07-21T07:09:01.900Z,69.20
2018-07-21T07:10:01.866Z,68.72
2018-07-21T07:11:01.818Z,68.91
2018-07-21T07:12:01.784Z,68.52
2018-07-21T07:13:01.746Z,68.14
2018-07-21T07:14:01.704Z,67.08
2018-07-21T07:15:01.667Z,67.46
2018-07-21T07:16:01.627Z,67.17
2018-07-21T07:17:01.589Z,67.30
2018-07-21T07:18:01.555Z,68.43
2018-07-21T07:19:01.508Z,68.27
2018-07-21T07:20:01.473Z,67.40
2018-07-21T07:21:01.436Z,66.72
2018-07-21T07:22:01.395Z,66.63
2018-07-21T07:23:01.358Z,67.40
2018-07-21T07:24:01.317Z,66.82
2018-07-21T07:25:01.279Z,66.82
2018-07-21T07:26:01.237Z,66.14
2018-07-21T07:27:01.200Z,67.01
2018-07-21T07:28:01.159Z,66.82
2018-07-21T07:29:01.124Z,66.53
2018-07-21T07:30:01.085Z,67.01
2018-07-21T07:31:01.042Z,65.66
2018-07-21T07:32:01.009Z,65.85
2018-07-21T07:33:00.966Z,65.47
2018-07-21T07:34:00.944Z,65.37
2018-07-21T07:35:00.891Z,65.27
2018-07-21T07:36:00.851Z,66.08
2018-07-21T07:37:00.817Z,64.92
2018-07-21T07:38:00.784Z,65.69
2018-07-21T07:39:00.737Z,65.98
2018-07-21T07:40:00.698Z,64.82
2018-07-21T07:41:00.669Z,63.76
2018-07-21T07:42:00.630Z,63.46
2018-07-21T07:43:00.578Z,63.37
2018-07-21T07:44:00.540Z,62.34
2018-07-21T07:45:00.503Z,63.27
2018-07-21T07:46:00.465Z,63.21
2018-07-21T07:47:00.425Z,63.11
2018-07-21T07:48:00.387Z,61.95
2018-07-21T07:49:00.351Z,62.82
2018-07-21T07:50:00.310Z,62.14
2018-07-21T07:51:00.278Z,62.14
2018-07-21T07:52:00.234Z,60.21
2018-07-21T07:53:00.194Z,61.08
2018-07-21T07:54:00.178Z,61.08
2018-07-21T07:55:00.140Z,61.18
2018-07-21T07:56:00.079Z,60.91
2018-07-21T07:57:00.041Z,59.84
2018-07-21T07:58:00.002Z,60.52
2018-07-21T07:58:59.963Z,59.46
2018-07-21T07:59:59.925Z,59.66
2018-07-21T08:00:59.888Z,58.88
2018-07-21T08:01:59.851Z,58.78
2018-07-21T08:02:59.812Z,58.88
2018-07-21T08:03:59.774Z,59.17
2018-07-21T08:04:59.735Z,58.69
2018-07-21T08:05:59.698Z,59.00
2018-07-21T08:06:59.660Z,59.49
2018-07-21T08:07:59.624Z,58.91
2018-07-21T08:08:59.582Z,59.00
2018-07-21T08:09:59.548Z,59.49
2018-07-21T08:10:59.506Z,58.04
2018-07-21T08:11:59.467Z,58.23
2018-07-21T08:12:59.435Z,59.00
2018-07-21T08:13:59.391Z,59.49
2018-07-21T08:14:59.353Z,59.49
2018-07-21T08:15:59.315Z,57.17
2018-07-21T08:16:59.278Z,56.51
2018-07-21T08:17:59.242Z,55.74
2018-07-21T08:18:59.206Z,54.38
2018-07-21T08:19:59.163Z,55.35
2018-07-21T08:20:59.127Z,54.77
2018-07-21T08:21:59.088Z,54.28
2018-07-21T08:22:59.051Z,54.19
2018-07-21T08:23:59.012Z,54.67
2018-07-21T08:24:58.976Z,54.19
2018-07-21T08:25:58.937Z,53.99
2018-07-21T08:26:58.898Z,53.99
2018-07-21T08:27:58.862Z,54.48
2018-07-21T08:28:58.828Z,54.67
2018-07-21T08:29:58.788Z,56.25
2018-07-21T08:30:58.747Z,55.28
2018-07-21T08:31:58.711Z,55.18
2018-07-21T08:32:58.672Z,57.03
2018-07-21T08:33:58.640Z,55.47
2018-07-21T08:34:58.595Z,55.28
2018-07-21T08:35:58.561Z,53.95
2018-07-21T08:36:58.523Z,54.02
2018-07-21T08:37:58.484Z,54.31
2018-07-21T08:38:58.446Z,54.34
2018-07-21T08:39:58.411Z,55.11
2018-07-21T08:40:58.372Z,54.53
2018-07-21T08:41:58.335Z,55.50
2018-07-21T08:42:58.299Z,53.95
2018-07-21T08:43:58.265Z,54.24
2018-07-21T08:44:58.222Z,53.37
2018-07-21T08:45:58.196Z,53.66
2018-07-21T08:46:58.149Z,52.11
2018-07-21T08:47:58.112Z,52.40
2018-07-21T08:48:58.075Z,52.33
2018-07-21T08:49:58.037Z,52.23
2018-07-21T08:50:58.002Z,51.55
2018-07-21T08:51:57.965Z,52.42
2018-07-21T08:52:57.925Z,52.72
2018-07-21T08:53:57.886Z,51.45
2018-07-21T08:54:57.848Z,51.16
2018-07-21T08:55:57.864Z,51.45
2018-07-21T08:56:57.774Z,51.26
2018-07-21T08:57:57.735Z,50.60
2018-07-21T08:58:57.703Z,50.41
2018-07-21T08:59:57.661Z,51.48
2018-07-21T09:00:57.623Z,50.31
2018-07-21T09:01:57.607Z,50.31
2018-07-21T09:02:57.552Z,51.28
2018-07-21T09:03:57.513Z,50.31
2018-07-21T09:04:57.478Z,50.43
2018-07-21T09:05:57.442Z,49.07
2018-07-21T09:06:57.402Z,48.10
2018-07-21T09:07:57.367Z,51.11
2018-07-21T09:08:57.332Z,60.54
2018-07-21T09:09:57.304Z,69.19
2018-07-21T09:10:57.255Z,72.20
2018-07-21T09:11:57.218Z,70.22
2018-07-21T09:12:57.185Z,70.71
2018-07-21T09:13:57.151Z,69.51
2018-07-21T09:14:57.115Z,68.35
2018-07-21T09:15:57.071Z,70.67
2018-07-21T09:16:57.046Z,67.63
2018-07-21T09:17:56.995Z,68.02
2018-07-21T09:18:56.960Z,69.96
2018-07-21T09:19:56.921Z,67.83
2018-07-21T09:20:56.887Z,66.76
2018-07-21T09:21:56.851Z,64.92
2018-07-21T09:22:56.817Z,65.01
2018-07-21T09:23:56.775Z,64.43
2018-07-21T09:24:56.736Z,65.40
2018-07-21T09:25:56.698Z,62.55
2018-07-21T09:26:56.661Z,61.22
2018-07-21T09:27:56.623Z,60.55
2018-07-21T09:28:56.586Z,59.97
2018-07-21T09:29:56.549Z,58.51
2018-07-21T09:30:56.512Z,56.96
2018-07-21T09:31:56.473Z,58.90
2018-07-21T09:32:56.434Z,57.54
2018-07-21T09:33:56.399Z,57.28
2018-07-21T09:34:56.360Z,58.44
2018-07-21T09:35:56.324Z,59.03
2018-07-21T09:36:56.289Z,59.41
2018-07-21T09:37:56.247Z,57.76
2018-07-21T09:38:56.209Z,56.79
2018-07-21T09:39:56.172Z,56.70
2018-07-21T09:40:56.139Z,55.36
2018-07-21T09:41:56.099Z,56.24
2018-07-21T09:42:56.065Z,58.37
2018-07-21T09:43:56.026Z,57.01
2018-07-21T09:44:55.989Z,55.46
2018-07-21T09:45:55.951Z,55.29
2018-07-21T09:46:55.912Z,52.57
2018-07-21T09:47:55.875Z,53.83
2018-07-21T09:48:55.836Z,53.45
2018-07-21T09:49:55.802Z,53.16
2018-07-21T09:50:55.763Z,54.44
2018-07-21T09:51:55.726Z,54.54
2018-07-21T09:52:55.688Z,54.15
2018-07-21T09:53:55.656Z,52.98
2018-07-21T09:54:55.615Z,54.64
2018-07-21T09:55:55.690Z,51.72
2018-07-21T09:56:55.552Z,52.62
2018-07-21T09:57:55.536Z,54.18
2018-07-21T09:58:55.498Z,52.33
2018-07-21T09:59:55.431Z,52.33
2018-07-21T10:00:55.395Z,52.43
2018-07-21T10:01:55.364Z,52.43
2018-07-21T10:02:55.331Z,50.38
2018-07-21T10:03:55.284Z,50.68
2018-07-21T10:04:55.246Z,51.97
2018-07-21T10:05:55.211Z,51.48
2018-07-21T10:06:55.179Z,51.67
2018-07-21T10:07:55.138Z,50.80
2018-07-21T10:08:55.102Z,50.21
2018-07-21T10:09:55.071Z,50.90
2018-07-21T10:10:55.029Z,49.85
2018-07-21T10:11:54.991Z,51.31
2018-07-21T10:12:54.955Z,50.53
2018-07-21T10:13:54.925Z,50.75
2018-07-21T10:14:54.884Z,49.58
2018-07-21T10:15:54.846Z,48.41
2018-07-21T10:16:54.812Z,49.80
2018-07-21T10:17:54.776Z,47.75
2018-07-21T10:18:54.739Z,47.66
2018-07-21T10:19:54.703Z,49.41
2018-07-21T10:20:54.671Z,47.07
2018-07-21T10:21:54.670Z,46.97
2018-07-21T10:22:54.597Z,45.73
2018-07-21T10:23:54.559Z,46.31
2018-07-21T10:24:54.524Z,49.63
2018-07-21T10:25:54.496Z,48.36
2018-07-21T10:26:54.452Z,48.39
2018-07-21T10:27:54.418Z,48.19
2018-07-21T10:28:54.385Z,47.51
2018-07-21T10:29:54.347Z,45.65
2018-07-21T10:30:54.309Z,45.07
2018-07-21T10:31:54.274Z,44.97
2018-07-21T10:32:54.239Z,45.39
2018-07-21T10:33:54.206Z,44.80
2018-07-21T10:34:54.171Z,44.92
2018-07-21T10:35:54.154Z,44.73
2018-07-21T10:36:54.101Z,44.53
2018-07-21T10:37:54.064Z,45.02
2018-07-21T10:38:54.028Z,44.65
2018-07-21T10:39:53.994Z,44.74
2018-07-21T10:40:53.961Z,45.14
2018-07-21T10:41:53.922Z,44.06
2018-07-21T10:42:53.887Z,43.49
2018-07-21T10:43:53.852Z,42.21
2018-07-21T10:44:53.822Z,42.52
2018-07-21T10:45:53.783Z,42.03
2018-07-21T10:46:53.750Z,42.61
2018-07-21T10:47:53.712Z,41.96
2018-07-21T10:48:53.684Z,43.52
2018-07-21T10:49:53.645Z,43.13
2018-07-21T10:50:53.700Z,43.52
2018-07-21T10:51:53.574Z,43.42
2018-07-21T10:52:53.540Z,41.46
2018-07-21T10:53:53.523Z,41.17
2018-07-21T10:54:53.473Z,42.64
2018-07-21T10:55:53.437Z,41.44
2018-07-21T10:56:53.402Z,41.44
2018-07-21T10:57:53.368Z,39.98
2018-07-21T10:58:53.332Z,39.49
2018-07-21T11:00:53.264Z,39.88
2018-07-21T11:01:53.230Z,39.88
2018-07-21T11:02:53.198Z,41.05
2018-07-21T11:03:53.165Z,41.07
2018-07-21T11:04:53.126Z,43.13
2018-07-21T11:05:53.094Z,40.19
2018-07-21T11:06:53.088Z,40.80
2018-07-21T11:07:53.026Z,40.50
2018-07-21T11:08:52.989Z,40.11
2018-07-21T11:09:52.964Z,39.82
2018-07-21T11:10:52.919Z,39.82
2018-07-21T11:11:52.888Z,38.94
2018-07-21T11:12:52.852Z,38.84
2018-07-21T11:13:52.828Z,38.55
2018-07-21T11:14:52.782Z,39.43
2018-07-21T11:15:52.749Z,39.23
2018-07-21T11:16:52.714Z,38.84
2018-07-21T11:17:52.694Z,39.15
2018-07-21T11:18:52.647Z,39.25
2018-07-21T11:19:52.612Z,38.28
2018-07-21T11:20:52.580Z,40.33
2018-07-21T11:21:52.555Z,40.03
2018-07-21T11:22:52.508Z,38.98
2018-07-21T11:23:52.476Z,38.47
2018-07-21T11:24:52.500Z,38.39
2018-07-21T11:25:52.407Z,38.88
2018-07-21T11:26:52.373Z,39.66
2018-07-21T11:27:52.341Z,39.09
2018-07-21T11:28:52.304Z,38.31
2018-07-21T11:29:52.273Z,37.73
2018-07-21T11:30:52.236Z,38.33
2018-07-21T11:31:52.203Z,38.23
2018-07-21T11:32:52.169Z,37.45
2018-07-21T11:33:52.136Z,38.13
2018-07-21T11:34:52.103Z,36.76
2018-07-21T11:35:52.522Z,37.25
2018-07-21T11:36:52.039Z,36.47
2018-07-21T11:37:52.190Z,37.46
2018-07-21T11:38:51.973Z,37.66
2018-07-21T11:39:52.227Z,36.98
2018-07-21T11:40:51.904Z,35.03
2018-07-21T11:41:52.058Z,35.62
2018-07-21T11:42:51.833Z,35.23
2018-07-21T11:43:52.027Z,35.72
2018-07-21T11:44:51.771Z,34.64
2018-07-21T11:45:51.978Z,35.03
2018-07-21T11:46:51.701Z,34.54
2018-07-21T11:47:51.905Z,33.74
2018-07-21T11:48:51.636Z,35.70
2018-07-21T11:49:51.603Z,35.62
2018-07-21T11:50:51.779Z,35.03
2018-07-21T11:51:51.534Z,35.23
2018-07-21T11:52:51.784Z,36.11
2018-07-21T11:53:51.470Z,35.41
2018-07-21T11:54:51.687Z,36.68
2018-07-21T11:55:51.401Z,35.50
2018-07-21T11:56:51.458Z,35.68
2018-07-21T11:57:51.336Z,34.31
2018-07-21T11:58:51.370Z,34.31
2018-07-21T11:59:51.270Z,35.19
2018-07-21T12:00:51.319Z,36.18
2018-07-21T12:01:51.259Z,35.47
2018-07-21T12:02:51.202Z,35.37
2018-07-21T12:03:51.138Z,35.88
2018-07-21T12:04:51.347Z,35.21
2018-07-21T12:05:51.069Z,34.62
2018-07-21T12:06:51.035Z,34.42
2018-07-21T12:07:51.004Z,35.29
2018-07-21T12:08:50.968Z,35.78
2018-07-21T12:09:50.936Z,36.76
2018-07-21T12:10:50.900Z,36.27
2018-07-21T12:11:50.871Z,34.70
2018-07-21T12:12:50.834Z,36.65
2018-07-21T12:13:50.803Z,36.45
2018-07-21T12:14:50.815Z,37.45
2018-07-21T12:15:50.734Z,36.58
2018-07-21T12:16:50.698Z,34.83
2018-07-21T12:17:50.665Z,34.06
2018-07-21T12:18:50.633Z,35.62
2018-07-21T12:19:50.681Z,36.58
2018-07-21T12:20:50.568Z,35.83
2018-07-21T12:21:50.535Z,35.99
2018-07-21T12:22:50.518Z,33.84
2018-07-21T12:23:50.464Z,32.00
2018-07-21T12:24:50.428Z,31.63
2018-07-21T12:25:50.396Z,30.66
2018-07-21T12:26:50.362Z,30.89
2018-07-21T12:27:50.328Z,31.30
2018-07-21T12:28:50.302Z,30.79
2018-07-21T12:29:50.265Z,30.76
2018-07-21T12:30:50.227Z,30.83
2018-07-21T12:31:50.228Z,30.43
2018-07-21T12:32:50.163Z,31.38
2018-07-21T12:33:50.129Z,32.56
2018-07-21T12:34:50.095Z,33.23
2018-07-21T12:35:50.065Z,34.39
2018-07-21T12:36:50.045Z,33.59
2018-07-21T12:37:49.996Z,34.38
2018-07-21T12:38:50.023Z,32.89
2018-07-21T12:39:49.929Z,33.36
2018-07-21T12:40:49.979Z,33.84
2018-07-21T12:41:49.867Z,34.03
2018-07-21T12:42:49.837Z,35.49
2018-07-21T12:43:49.848Z,34.61
2018-07-21T12:44:49.805Z,34.69
2018-07-21T12:45:49.772Z,35.47
2018-07-21T12:46:49.725Z,36.14
2018-07-21T12:47:49.756Z,38.10
2018-07-21T12:48:49.701Z,37.61
2018-07-21T12:49:49.632Z,37.10
2018-07-21T12:50:49.653Z,37.10
2018-07-21T12:51:49.935Z,37.88
2018-07-21T12:52:49.574Z,38.28